sensor_id;sensor_type;location;lat;lon;timestamp;P1;durP1;ratioP1;P2;durP2;ratioP2
55800;SDS011;41730;51.960;20.158;2022-08-11T00:00:13;12.20;;;6.90;;
55800;SDS011;41730;51.960;20.158;2022-08-11T00:02:46;9.40;;;5.10;;
55800;SDS011;41730;51.960;20.158;2022-08-11T00:05:20;11.30;;;6.30;;
55800;SDS011;41730;51.960;20.158;2022-08-11T00:07:52;10.20;;;5.60;;
55800;SDS011;41730;51.960;20.158;2022-08-11T00:10:26;11.60;;;5.90;;
55800;SDS011;41730;51.960;20.158;2022-08-11T00:12:59;9.80;;;5.80;;
55800;SDS011;41730;51.960;20.158;2022-08-11T00:15:38;9.90;;;5.70;;
55800;SDS011;41730;51.960;20.158;2022-08-11T00:18:15;8.40;;;5.20;;
55800;SDS011;41730;51.960;20.158;2022-08-11T00:20:47;8.50;;;4.90;;
55800;SDS011;41730;51.960;20.158;2022-08-11T00:23:20;9.10;;;5.10;;
55800;SDS011;41730;51.960;20.158;2022-08-11T00:25:51;11.40;;;5.50;;
55800;SDS011;41730;51.960;20.158;2022-08-11T00:28:24;8.80;;;5.00;;
55800;SDS011;41730;51.960;20.158;2022-08-11T00:30:58;9.10;;;5.00;;
55800;SDS011;41730;51.960;20.158;2022-08-11T00:33:36;7.70;;;4.70;;
55800;SDS011;41730;51.960;20.158;2022-08-11T00:36:13;8.20;;;5.10;;
55800;SDS011;41730;51.960;20.158;2022-08-11T00:38:52;8.80;;;4.80;;
55800;SDS011;41730;51.960;20.158;2022-08-11T00:41:33;8.60;;;4.90;;
55800;SDS011;41730;51.960;20.158;2022-08-11T00:44:22;9.40;;;5.00;;
55800;SDS011;41730;51.960;20.158;2022-08-11T00:47:04;8.00;;;5.00;;
55800;SDS011;41730;51.960;20.158;2022-08-11T00:49:56;9.70;;;5.40;;
55800;SDS011;41730;51.960;20.158;2022-08-11T01:02:08;9.00;;;5.00;;
55800;SDS011;41730;51.960;20.158;2022-08-11T01:07:49;10.30;;;4.60;;
55800;SDS011;41730;51.960;20.158;2022-08-11T01:11:04;7.60;;;4.40;;
55800;SDS011;41730;51.960;20.158;2022-08-11T01:14:17;6.90;;;4.30;;
55800;SDS011;41730;51.960;20.158;2022-08-11T01:30:12;6.70;;;4.20;;
55800;SDS011;41730;51.960;20.158;2022-08-11T01:33:18;8.50;;;4.10;;
55800;SDS011;41730;51.960;20.158;2022-08-11T01:45:58;8.70;;;4.50;;
55800;SDS011;41730;51.960;20.158;2022-08-11T01:48:38;7.50;;;4.60;;
55800;SDS011;41730;51.960;20.158;2022-08-11T01:51:21;8.80;;;4.60;;
55800;SDS011;41730;51.960;20.158;2022-08-11T01:54:04;7.80;;;4.70;;
55800;SDS011;41730;51.960;20.158;2022-08-11T01:56:52;8.10;;;4.70;;
55800;SDS011;41730;51.960;20.158;2022-08-11T01:59:40;7.80;;;4.80;;
55800;SDS011;41730;51.960;20.158;2022-08-11T02:02:22;7.20;;;4.40;;
55800;SDS011;41730;51.960;20.158;2022-08-11T02:05:19;7.10;;;4.70;;
55800;SDS011;41730;51.960;20.158;2022-08-11T02:08:01;7.90;;;5.00;;
55800;SDS011;41730;51.960;20.158;2022-08-11T02:10:45;7.30;;;4.90;;
55800;SDS011;41730;51.960;20.158;2022-08-11T02:13:45;10.30;;;5.00;;
55800;SDS011;41730;51.960;20.158;2022-08-11T02:16:28;7.50;;;4.40;;
55800;SDS011;41730;51.960;20.158;2022-08-11T02:19:25;7.40;;;4.80;;
55800;SDS011;41730;51.960;20.158;2022-08-11T02:22:25;7.60;;;4.30;;
55800;SDS011;41730;51.960;20.158;2022-08-11T02:25:25;7.60;;;4.30;;
55800;SDS011;41730;51.960;20.158;2022-08-11T02:28:09;7.70;;;4.10;;
55800;SDS011;41730;51.960;20.158;2022-08-11T02:30:59;6.80;;;4.40;;
55800;SDS011;41730;51.960;20.158;2022-08-11T02:34:23;7.40;;;4.90;;
55800;SDS011;41730;51.960;20.158;2022-08-11T02:37:09;8.40;;;4.40;;
55800;SDS011;41730;51.960;20.158;2022-08-11T02:40:08;9.20;;;4.90;;
55800;SDS011;41730;51.960;20.158;2022-08-11T02:42:57;10.10;;;5.00;;
55800;SDS011;41730;51.960;20.158;2022-08-11T02:45:44;7.20;;;4.80;;
55800;SDS011;41730;51.960;20.158;2022-08-11T02:51:38;7.40;;;5.10;;
55800;SDS011;41730;51.960;20.158;2022-08-11T02:54:22;8.50;;;5.60;;
55800;SDS011;41730;51.960;20.158;2022-08-11T02:57:03;8.00;;;4.90;;
55800;SDS011;41730;51.960;20.158;2022-08-11T02:59:46;7.90;;;5.00;;
55800;SDS011;41730;51.960;20.158;2022-08-11T03:02:28;7.30;;;5.10;;
55800;SDS011;41730;51.960;20.158;2022-08-11T03:05:17;6.40;;;4.80;;
55800;SDS011;41730;51.960;20.158;2022-08-11T03:08:04;9.00;;;5.10;;
55800;SDS011;41730;51.960;20.158;2022-08-11T03:10:45;7.50;;;5.10;;
55800;SDS011;41730;51.960;20.158;2022-08-11T03:13:40;10.30;;;5.30;;
55800;SDS011;41730;51.960;20.158;2022-08-11T03:16:44;8.50;;;5.20;;
55800;SDS011;41730;51.960;20.158;2022-08-11T03:19:23;7.40;;;4.70;;
55800;SDS011;41730;51.960;20.158;2022-08-11T03:22:04;6.30;;;4.20;;
55800;SDS011;41730;51.960;20.158;2022-08-11T03:24:50;8.10;;;4.60;;
55800;SDS011;41730;51.960;20.158;2022-08-11T03:27:32;7.30;;;4.90;;
55800;SDS011;41730;51.960;20.158;2022-08-11T03:30:10;9.10;;;5.20;;
55800;SDS011;41730;51.960;20.158;2022-08-11T03:32:59;8.40;;;5.10;;
55800;SDS011;41730;51.960;20.158;2022-08-11T03:36:19;8.20;;;4.80;;
55800;SDS011;41730;51.960;20.158;2022-08-11T03:39:36;8.70;;;4.80;;
55800;SDS011;41730;51.960;20.158;2022-08-11T03:42:25;9.70;;;5.20;;
55800;SDS011;41730;51.960;20.158;2022-08-11T03:45:04;9.10;;;5.30;;
55800;SDS011;41730;51.960;20.158;2022-08-11T03:47:48;7.80;;;4.70;;
55800;SDS011;41730;51.960;20.158;2022-08-11T03:50:44;7.80;;;5.30;;
55800;SDS011;41730;51.960;20.158;2022-08-11T03:53:31;8.80;;;5.40;;
55800;SDS011;41730;51.960;20.158;2022-08-11T03:59:42;7.90;;;4.80;;
55800;SDS011;41730;51.960;20.158;2022-08-11T04:02:55;7.50;;;4.30;;
55800;SDS011;41730;51.960;20.158;2022-08-11T04:09:22;8.30;;;4.60;;
55800;SDS011;41730;51.960;20.158;2022-08-11T04:12:35;7.30;;;4.50;;
55800;SDS011;41730;51.960;20.158;2022-08-11T04:15:25;7.00;;;4.40;;
55800;SDS011;41730;51.960;20.158;2022-08-11T04:28:33;8.00;;;4.50;;
55800;SDS011;41730;51.960;20.158;2022-08-11T04:31:29;8.40;;;4.20;;
55800;SDS011;41730;51.960;20.158;2022-08-11T04:37:25;7.30;;;3.60;;
55800;SDS011;41730;51.960;20.158;2022-08-11T04:46:58;7.70;;;4.10;;
55800;SDS011;41730;51.960;20.158;2022-08-11T04:50:38;6.90;;;3.80;;
55800;SDS011;41730;51.960;20.158;2022-08-11T04:53:49;6.40;;;3.80;;
55800;SDS011;41730;51.960;20.158;2022-08-11T04:56:46;7.90;;;3.60;;
55800;SDS011;41730;51.960;20.158;2022-08-11T05:03:07;8.00;;;3.80;;
55800;SDS011;41730;51.960;20.158;2022-08-11T05:06:13;7.30;;;3.80;;
55800;SDS011;41730;51.960;20.158;2022-08-11T05:09:16;8.20;;;3.90;;
55800;SDS011;41730;51.960;20.158;2022-08-11T05:12:05;5.60;;;3.40;;
55800;SDS011;41730;51.960;20.158;2022-08-11T05:14:52;9.30;;;4.00;;
55800;SDS011;41730;51.960;20.158;2022-08-11T05:17:43;9.10;;;3.80;;
55800;SDS011;41730;51.960;20.158;2022-08-11T05:20:42;9.30;;;3.70;;
55800;SDS011;41730;51.960;20.158;2022-08-11T05:23:38;7.30;;;4.10;;
55800;SDS011;41730;51.960;20.158;2022-08-11T05:26:36;12.30;;;4.80;;
55800;SDS011;41730;51.960;20.158;2022-08-11T05:29:37;12.30;;;4.50;;
55800;SDS011;41730;51.960;20.158;2022-08-11T05:32:35;10.10;;;4.60;;
55800;SDS011;41730;51.960;20.158;2022-08-11T05:35:30;15.60;;;4.40;;
55800;SDS011;41730;51.960;20.158;2022-08-11T05:38:27;9.70;;;4.40;;
55800;SDS011;41730;51.960;20.158;2022-08-11T05:41:19;11.00;;;4.60;;
55800;SDS011;41730;51.960;20.158;2022-08-11T05:44:15;7.50;;;4.00;;
55800;SDS011;41730;51.960;20.158;2022-08-11T05:47:07;7.30;;;3.50;;
55800;SDS011;41730;51.960;20.158;2022-08-11T05:49:56;8.90;;;3.90;;
55800;SDS011;41730;51.960;20.158;2022-08-11T05:52:58;10.00;;;4.30;;
55800;SDS011;41730;51.960;20.158;2022-08-11T05:55:47;10.30;;;4.00;;
55800;SDS011;41730;51.960;20.158;2022-08-11T05:58:38;8.10;;;4.10;;
55800;SDS011;41730;51.960;20.158;2022-08-11T06:01:13;9.80;;;3.50;;
55800;SDS011;41730;51.960;20.158;2022-08-11T06:03:50;7.20;;;3.60;;
55800;SDS011;41730;51.960;20.158;2022-08-11T06:06:56;11.30;;;3.80;;
55800;SDS011;41730;51.960;20.158;2022-08-11T06:09:31;9.50;;;3.70;;
55800;SDS011;41730;51.960;20.158;2022-08-11T06:12:05;5.80;;;3.10;;
55800;SDS011;41730;51.960;20.158;2022-08-11T06:14:44;8.40;;;3.70;;
55800;SDS011;41730;51.960;20.158;2022-08-11T06:17:22;7.90;;;3.70;;
55800;SDS011;41730;51.960;20.158;2022-08-11T06:20:06;6.80;;;3.40;;
55800;SDS011;41730;51.960;20.158;2022-08-11T06:22:40;11.20;;;3.70;;
55800;SDS011;41730;51.960;20.158;2022-08-11T06:25:19;7.30;;;3.30;;
55800;SDS011;41730;51.960;20.158;2022-08-11T06:27:58;8.80;;;3.40;;
55800;SDS011;41730;51.960;20.158;2022-08-11T06:30:34;8.40;;;3.60;;
55800;SDS011;41730;51.960;20.158;2022-08-11T06:33:09;6.30;;;3.20;;
55800;SDS011;41730;51.960;20.158;2022-08-11T06:35:47;11.60;;;4.50;;
55800;SDS011;41730;51.960;20.158;2022-08-11T06:38:38;12.60;;;4.60;;
55800;SDS011;41730;51.960;20.158;2022-08-11T06:41:22;8.20;;;3.50;;
55800;SDS011;41730;51.960;20.158;2022-08-11T06:44:13;9.70;;;3.80;;
55800;SDS011;41730;51.960;20.158;2022-08-11T06:46:51;7.70;;;3.50;;
55800;SDS011;41730;51.960;20.158;2022-08-11T06:49:33;10.80;;;3.40;;
55800;SDS011;41730;51.960;20.158;2022-08-11T06:52:28;7.80;;;3.10;;
55800;SDS011;41730;51.960;20.158;2022-08-11T06:55:06;6.00;;;2.80;;
55800;SDS011;41730;51.960;20.158;2022-08-11T06:58:00;9.80;;;3.40;;
55800;SDS011;41730;51.960;20.158;2022-08-11T07:00:51;6.80;;;2.90;;
55800;SDS011;41730;51.960;20.158;2022-08-11T07:03:27;11.80;;;3.40;;
55800;SDS011;41730;51.960;20.158;2022-08-11T07:06:08;9.10;;;3.40;;
55800;SDS011;41730;51.960;20.158;2022-08-11T07:09:30;7.90;;;3.00;;
55800;SDS011;41730;51.960;20.158;2022-08-11T07:12:37;6.20;;;2.70;;
55800;SDS011;41730;51.960;20.158;2022-08-11T07:15:30;7.50;;;2.80;;
55800;SDS011;41730;51.960;20.158;2022-08-11T07:18:33;4.70;;;2.30;;
55800;SDS011;41730;51.960;20.158;2022-08-11T07:21:23;4.70;;;2.10;;
55800;SDS011;41730;51.960;20.158;2022-08-11T07:24:31;3.80;;;2.10;;
55800;SDS011;41730;51.960;20.158;2022-08-11T07:27:29;4.90;;;2.00;;
55800;SDS011;41730;51.960;20.158;2022-08-11T07:30:23;4.50;;;1.80;;
55800;SDS011;41730;51.960;20.158;2022-08-11T07:32:55;6.70;;;2.10;;
55800;SDS011;41730;51.960;20.158;2022-08-11T07:35:32;4.30;;;1.90;;
55800;SDS011;41730;51.960;20.158;2022-08-11T07:38:05;5.10;;;2.10;;
55800;SDS011;41730;51.960;20.158;2022-08-11T07:40:44;4.80;;;2.10;;
55800;SDS011;41730;51.960;20.158;2022-08-11T07:43:17;7.40;;;2.00;;
55800;SDS011;41730;51.960;20.158;2022-08-11T07:45:48;7.70;;;2.30;;
55800;SDS011;41730;51.960;20.158;2022-08-11T07:48:38;4.10;;;1.80;;
55800;SDS011;41730;51.960;20.158;2022-08-11T07:51:29;3.60;;;1.70;;
55800;SDS011;41730;51.960;20.158;2022-08-11T07:54:17;4.90;;;1.70;;
55800;SDS011;41730;51.960;20.158;2022-08-11T07:56:54;7.20;;;1.90;;
55800;SDS011;41730;51.960;20.158;2022-08-11T07:59:48;3.60;;;1.60;;
55800;SDS011;41730;51.960;20.158;2022-08-11T08:02:37;5.20;;;2.00;;
55800;SDS011;41730;51.960;20.158;2022-08-11T08:05:26;3.70;;;1.90;;
55800;SDS011;41730;51.960;20.158;2022-08-11T08:08:17;3.60;;;1.60;;
55800;SDS011;41730;51.960;20.158;2022-08-11T08:11:08;3.50;;;1.60;;
55800;SDS011;41730;51.960;20.158;2022-08-11T08:13:57;3.30;;;1.30;;
55800;SDS011;41730;51.960;20.158;2022-08-11T08:16:47;3.00;;;1.30;;
55800;SDS011;41730;51.960;20.158;2022-08-11T08:19:36;2.20;;;1.10;;
55800;SDS011;41730;51.960;20.158;2022-08-11T08:25:04;2.80;;;1.30;;
55800;SDS011;41730;51.960;20.158;2022-08-11T08:27:38;3.80;;;1.10;;
55800;SDS011;41730;51.960;20.158;2022-08-11T08:30:12;4.10;;;1.40;;
55800;SDS011;41730;51.960;20.158;2022-08-11T08:33:01;3.80;;;1.30;;
55800;SDS011;41730;51.960;20.158;2022-08-11T08:35:34;2.80;;;0.90;;
55800;SDS011;41730;51.960;20.158;2022-08-11T08:38:23;4.10;;;1.30;;
55800;SDS011;41730;51.960;20.158;2022-08-11T08:40:54;3.00;;;1.00;;
55800;SDS011;41730;51.960;20.158;2022-08-11T08:43:27;2.80;;;1.50;;
55800;SDS011;41730;51.960;20.158;2022-08-11T08:46:16;2.40;;;1.10;;
55800;SDS011;41730;51.960;20.158;2022-08-11T08:48:54;2.70;;;1.20;;
55800;SDS011;41730;51.960;20.158;2022-08-11T08:51:28;4.00;;;1.10;;
55800;SDS011;41730;51.960;20.158;2022-08-11T08:54:26;4.50;;;1.40;;
55800;SDS011;41730;51.960;20.158;2022-08-11T08:57:02;3.30;;;1.10;;
55800;SDS011;41730;51.960;20.158;2022-08-11T08:59:38;4.50;;;1.20;;
55800;SDS011;41730;51.960;20.158;2022-08-11T09:02:16;5.00;;;1.70;;
55800;SDS011;41730;51.960;20.158;2022-08-11T09:05:02;2.30;;;1.00;;
55800;SDS011;41730;51.960;20.158;2022-08-11T09:07:37;4.70;;;1.30;;
55800;SDS011;41730;51.960;20.158;2022-08-11T09:10:10;3.10;;;1.30;;
55800;SDS011;41730;51.960;20.158;2022-08-11T09:12:47;3.40;;;1.50;;
55800;SDS011;41730;51.960;20.158;2022-08-11T09:15:21;2.90;;;1.00;;
55800;SDS011;41730;51.960;20.158;2022-08-11T09:17:55;2.10;;;1.10;;
55800;SDS011;41730;51.960;20.158;2022-08-11T09:20:34;2.90;;;1.20;;
55800;SDS011;41730;51.960;20.158;2022-08-11T09:23:07;2.40;;;1.30;;
55800;SDS011;41730;51.960;20.158;2022-08-11T09:26:17;2.20;;;1.20;;
55800;SDS011;41730;51.960;20.158;2022-08-11T09:29:10;2.60;;;1.00;;
55800;SDS011;41730;51.960;20.158;2022-08-11T09:31:42;3.40;;;1.10;;
55800;SDS011;41730;51.960;20.158;2022-08-11T09:34:14;4.30;;;1.00;;
55800;SDS011;41730;51.960;20.158;2022-08-11T09:36:46;2.50;;;1.50;;
55800;SDS011;41730;51.960;20.158;2022-08-11T09:39:36;2.00;;;0.80;;
55800;SDS011;41730;51.960;20.158;2022-08-11T09:42:26;2.70;;;1.00;;
55800;SDS011;41730;51.960;20.158;2022-08-11T09:45:12;4.30;;;1.10;;
55800;SDS011;41730;51.960;20.158;2022-08-11T09:47:45;1.70;;;1.00;;
55800;SDS011;41730;51.960;20.158;2022-08-11T09:50:17;5.20;;;1.00;;
55800;SDS011;41730;51.960;20.158;2022-08-11T09:52:49;2.30;;;1.00;;
55800;SDS011;41730;51.960;20.158;2022-08-11T09:55:42;2.30;;;1.10;;
55800;SDS011;41730;51.960;20.158;2022-08-11T09:58:14;3.90;;;1.10;;
55800;SDS011;41730;51.960;20.158;2022-08-11T10:01:06;2.00;;;0.90;;
55800;SDS011;41730;51.960;20.158;2022-08-11T10:03:57;3.20;;;1.20;;
55800;SDS011;41730;51.960;20.158;2022-08-11T10:06:32;4.10;;;1.50;;
55800;SDS011;41730;51.960;20.158;2022-08-11T10:09:34;7.70;;;1.60;;
55800;SDS011;41730;51.960;20.158;2022-08-11T10:12:10;4.00;;;1.10;;
55800;SDS011;41730;51.960;20.158;2022-08-11T10:14:47;2.50;;;1.10;;
55800;SDS011;41730;51.960;20.158;2022-08-11T10:17:41;3.80;;;1.00;;
55800;SDS011;41730;51.960;20.158;2022-08-11T10:20:29;1.80;;;0.90;;
55800;SDS011;41730;51.960;20.158;2022-08-11T10:23:04;2.20;;;0.90;;
55800;SDS011;41730;51.960;20.158;2022-08-11T10:25:56;2.20;;;1.00;;
55800;SDS011;41730;51.960;20.158;2022-08-11T10:28:47;2.00;;;0.90;;
55800;SDS011;41730;51.960;20.158;2022-08-11T10:31:40;1.50;;;0.90;;
55800;SDS011;41730;51.960;20.158;2022-08-11T10:34:31;2.90;;;0.90;;
55800;SDS011;41730;51.960;20.158;2022-08-11T10:37:06;3.70;;;1.10;;
55800;SDS011;41730;51.960;20.158;2022-08-11T10:39:42;2.10;;;1.20;;
55800;SDS011;41730;51.960;20.158;2022-08-11T10:42:17;2.80;;;1.20;;
55800;SDS011;41730;51.960;20.158;2022-08-11T10:45:24;2.50;;;1.00;;
55800;SDS011;41730;51.960;20.158;2022-08-11T10:48:15;1.60;;;0.90;;
55800;SDS011;41730;51.960;20.158;2022-08-11T10:50:48;3.00;;;1.00;;
55800;SDS011;41730;51.960;20.158;2022-08-11T10:53:40;3.40;;;0.90;;
55800;SDS011;41730;51.960;20.158;2022-08-11T10:56:31;2.30;;;1.10;;
55800;SDS011;41730;51.960;20.158;2022-08-11T10:59:23;2.50;;;1.60;;
55800;SDS011;41730;51.960;20.158;2022-08-11T11:04:29;2.80;;;1.00;;
55800;SDS011;41730;51.960;20.158;2022-08-11T11:07:16;2.60;;;1.00;;
55800;SDS011;41730;51.960;20.158;2022-08-11T11:09:53;2.40;;;0.80;;
55800;SDS011;41730;51.960;20.158;2022-08-11T11:12:28;2.00;;;0.90;;
55800;SDS011;41730;51.960;20.158;2022-08-11T11:15:20;2.20;;;0.80;;
55800;SDS011;41730;51.960;20.158;2022-08-11T11:18:26;1.20;;;0.70;;
55800;SDS011;41730;51.960;20.158;2022-08-11T11:21:04;1.70;;;0.80;;
55800;SDS011;41730;51.960;20.158;2022-08-11T11:23:39;3.40;;;1.20;;
55800;SDS011;41730;51.960;20.158;2022-08-11T11:26:27;2.00;;;0.90;;
55800;SDS011;41730;51.960;20.158;2022-08-11T11:29:28;3.30;;;0.90;;
55800;SDS011;41730;51.960;20.158;2022-08-11T11:32:19;2.30;;;0.90;;
55800;SDS011;41730;51.960;20.158;2022-08-11T11:35:07;2.60;;;0.80;;
55800;SDS011;41730;51.960;20.158;2022-08-11T11:37:50;1.80;;;0.90;;
55800;SDS011;41730;51.960;20.158;2022-08-11T11:40:32;1.20;;;0.70;;
55800;SDS011;41730;51.960;20.158;2022-08-11T11:43:06;2.30;;;0.90;;
55800;SDS011;41730;51.960;20.158;2022-08-11T11:45:39;1.30;;;0.80;;
55800;SDS011;41730;51.960;20.158;2022-08-11T11:48:11;3.80;;;1.00;;
55800;SDS011;41730;51.960;20.158;2022-08-11T11:50:43;2.00;;;0.70;;
55800;SDS011;41730;51.960;20.158;2022-08-11T11:53:15;1.90;;;0.90;;
55800;SDS011;41730;51.960;20.158;2022-08-11T11:55:47;1.70;;;0.90;;
55800;SDS011;41730;51.960;20.158;2022-08-11T11:58:19;3.50;;;1.00;;
55800;SDS011;41730;51.960;20.158;2022-08-11T12:01:09;2.90;;;1.00;;
55800;SDS011;41730;51.960;20.158;2022-08-11T12:03:44;2.20;;;1.00;;
55800;SDS011;41730;51.960;20.158;2022-08-11T12:08:49;2.20;;;1.30;;
55800;SDS011;41730;51.960;20.158;2022-08-11T12:11:25;4.60;;;0.90;;
55800;SDS011;41730;51.960;20.158;2022-08-11T12:14:16;3.10;;;1.10;;
55800;SDS011;41730;51.960;20.158;2022-08-11T12:16:51;2.90;;;0.90;;
55800;SDS011;41730;51.960;20.158;2022-08-11T12:19:24;2.20;;;1.00;;
55800;SDS011;41730;51.960;20.158;2022-08-11T12:22:03;2.90;;;1.10;;
55800;SDS011;41730;51.960;20.158;2022-08-11T12:24:52;3.30;;;1.00;;
55800;SDS011;41730;51.960;20.158;2022-08-11T12:27:42;2.60;;;1.00;;
55800;SDS011;41730;51.960;20.158;2022-08-11T12:30:14;2.30;;;1.00;;
55800;SDS011;41730;51.960;20.158;2022-08-11T12:32:48;1.70;;;0.90;;
55800;SDS011;41730;51.960;20.158;2022-08-11T12:35:20;2.30;;;0.90;;
55800;SDS011;41730;51.960;20.158;2022-08-11T12:37:53;1.30;;;0.70;;
55800;SDS011;41730;51.960;20.158;2022-08-11T12:40:37;1.50;;;0.90;;
55800;SDS011;41730;51.960;20.158;2022-08-11T12:43:44;2.60;;;0.70;;
55800;SDS011;41730;51.960;20.158;2022-08-11T12:46:34;3.10;;;0.90;;
55800;SDS011;41730;51.960;20.158;2022-08-11T12:49:12;3.30;;;1.00;;
55800;SDS011;41730;51.960;20.158;2022-08-11T12:52:08;2.30;;;1.00;;
55800;SDS011;41730;51.960;20.158;2022-08-11T12:54:49;2.10;;;0.80;;
55800;SDS011;41730;51.960;20.158;2022-08-11T12:57:27;1.60;;;0.80;;
55800;SDS011;41730;51.960;20.158;2022-08-11T13:00:19;2.30;;;1.00;;
55800;SDS011;41730;51.960;20.158;2022-08-11T13:03:10;2.10;;;0.80;;
55800;SDS011;41730;51.960;20.158;2022-08-11T13:06:00;2.00;;;1.00;;
55800;SDS011;41730;51.960;20.158;2022-08-11T13:08:34;1.40;;;0.70;;
55800;SDS011;41730;51.960;20.158;2022-08-11T13:11:08;4.20;;;1.10;;
55800;SDS011;41730;51.960;20.158;2022-08-11T13:14:17;3.70;;;1.10;;
55800;SDS011;41730;51.960;20.158;2022-08-11T13:16:49;3.80;;;1.20;;
55800;SDS011;41730;51.960;20.158;2022-08-11T13:19:39;2.30;;;1.10;;
55800;SDS011;41730;51.960;20.158;2022-08-11T13:22:16;4.20;;;1.40;;
55800;SDS011;41730;51.960;20.158;2022-08-11T13:24:50;5.70;;;1.40;;
55800;SDS011;41730;51.960;20.158;2022-08-11T13:27:23;4.20;;;1.50;;
55800;SDS011;41730;51.960;20.158;2022-08-11T13:29:55;4.40;;;1.30;;
55800;SDS011;41730;51.960;20.158;2022-08-11T13:32:41;2.80;;;1.30;;
55800;SDS011;41730;51.960;20.158;2022-08-11T13:35:14;2.80;;;1.00;;
55800;SDS011;41730;51.960;20.158;2022-08-11T13:37:47;4.50;;;1.20;;
55800;SDS011;41730;51.960;20.158;2022-08-11T13:40:39;3.90;;;1.20;;
55800;SDS011;41730;51.960;20.158;2022-08-11T13:43:23;2.10;;;1.10;;
55800;SDS011;41730;51.960;20.158;2022-08-11T13:45:55;5.10;;;1.10;;
55800;SDS011;41730;51.960;20.158;2022-08-11T13:48:41;1.90;;;1.00;;
55800;SDS011;41730;51.960;20.158;2022-08-11T13:51:16;1.60;;;1.10;;
55800;SDS011;41730;51.960;20.158;2022-08-11T13:54:03;2.50;;;1.10;;
55800;SDS011;41730;51.960;20.158;2022-08-11T13:56:38;3.30;;;1.30;;
55800;SDS011;41730;51.960;20.158;2022-08-11T13:59:11;1.80;;;1.10;;
55800;SDS011;41730;51.960;20.158;2022-08-11T14:01:46;2.00;;;1.00;;
55800;SDS011;41730;51.960;20.158;2022-08-11T14:04:41;4.10;;;1.40;;
55800;SDS011;41730;51.960;20.158;2022-08-11T14:07:23;2.60;;;1.00;;
55800;SDS011;41730;51.960;20.158;2022-08-11T14:10:02;3.10;;;1.10;;
55800;SDS011;41730;51.960;20.158;2022-08-11T14:15:26;5.40;;;1.70;;
55800;SDS011;41730;51.960;20.158;2022-08-11T14:18:04;4.00;;;1.70;;
55800;SDS011;41730;51.960;20.158;2022-08-11T14:20:38;7.00;;;2.60;;
55800;SDS011;41730;51.960;20.158;2022-08-11T14:23:30;4.20;;;1.40;;
55800;SDS011;41730;51.960;20.158;2022-08-11T14:26:04;2.10;;;1.10;;
55800;SDS011;41730;51.960;20.158;2022-08-11T14:28:56;1.60;;;1.20;;
55800;SDS011;41730;51.960;20.158;2022-08-11T14:31:31;3.40;;;1.10;;
55800;SDS011;41730;51.960;20.158;2022-08-11T14:34:06;5.00;;;1.10;;
55800;SDS011;41730;51.960;20.158;2022-08-11T14:36:42;2.20;;;1.10;;
55800;SDS011;41730;51.960;20.158;2022-08-11T14:39:20;3.70;;;1.10;;
55800;SDS011;41730;51.960;20.158;2022-08-11T14:41:55;3.50;;;1.10;;
55800;SDS011;41730;51.960;20.158;2022-08-11T14:44:47;3.10;;;1.10;;
55800;SDS011;41730;51.960;20.158;2022-08-11T14:47:50;1.70;;;1.00;;
55800;SDS011;41730;51.960;20.158;2022-08-11T14:50:23;1.80;;;1.00;;
55800;SDS011;41730;51.960;20.158;2022-08-11T14:52:57;2.60;;;1.30;;
55800;SDS011;41730;51.960;20.158;2022-08-11T14:55:30;2.00;;;0.90;;
55800;SDS011;41730;51.960;20.158;2022-08-11T14:58:23;1.80;;;0.90;;
55800;SDS011;41730;51.960;20.158;2022-08-11T15:00:59;2.00;;;1.10;;
55800;SDS011;41730;51.960;20.158;2022-08-11T15:03:52;1.50;;;0.80;;
55800;SDS011;41730;51.960;20.158;2022-08-11T15:06:44;3.40;;;1.10;;
55800;SDS011;41730;51.960;20.158;2022-08-11T15:09:16;3.40;;;1.30;;
55800;SDS011;41730;51.960;20.158;2022-08-11T15:11:48;2.10;;;1.00;;
55800;SDS011;41730;51.960;20.158;2022-08-11T15:15:00;2.20;;;1.40;;
55800;SDS011;41730;51.960;20.158;2022-08-11T15:17:52;5.00;;;2.50;;
55800;SDS011;41730;51.960;20.158;2022-08-11T15:20:26;2.90;;;1.20;;
55800;SDS011;41730;51.960;20.158;2022-08-11T15:23:20;1.80;;;0.80;;
55800;SDS011;41730;51.960;20.158;2022-08-11T15:26:10;2.10;;;1.10;;
55800;SDS011;41730;51.960;20.158;2022-08-11T15:28:46;2.90;;;1.20;;
55800;SDS011;41730;51.960;20.158;2022-08-11T15:31:36;2.40;;;0.90;;
55800;SDS011;41730;51.960;20.158;2022-08-11T15:34:26;2.30;;;0.90;;
55800;SDS011;41730;51.960;20.158;2022-08-11T15:37:16;1.70;;;1.00;;
55800;SDS011;41730;51.960;20.158;2022-08-11T15:40:02;4.60;;;1.10;;
55800;SDS011;41730;51.960;20.158;2022-08-11T15:43:00;3.30;;;1.00;;
55800;SDS011;41730;51.960;20.158;2022-08-11T15:45:57;2.10;;;1.00;;
55800;SDS011;41730;51.960;20.158;2022-08-11T15:48:40;1.20;;;0.70;;
55800;SDS011;41730;51.960;20.158;2022-08-11T15:51:17;2.30;;;1.00;;
55800;SDS011;41730;51.960;20.158;2022-08-11T15:53:57;3.60;;;1.40;;
55800;SDS011;41730;51.960;20.158;2022-08-11T15:56:36;3.90;;;1.10;;
55800;SDS011;41730;51.960;20.158;2022-08-11T15:59:10;1.80;;;0.90;;
55800;SDS011;41730;51.960;20.158;2022-08-11T16:02:11;1.60;;;0.90;;
55800;SDS011;41730;51.960;20.158;2022-08-11T16:05:05;1.90;;;1.00;;
55800;SDS011;41730;51.960;20.158;2022-08-11T16:08:02;3.70;;;1.30;;
55800;SDS011;41730;51.960;20.158;2022-08-11T16:10:38;2.20;;;0.90;;
55800;SDS011;41730;51.960;20.158;2022-08-11T16:13:11;2.60;;;1.10;;
55800;SDS011;41730;51.960;20.158;2022-08-11T16:16:02;2.20;;;1.10;;
55800;SDS011;41730;51.960;20.158;2022-08-11T16:18:47;2.20;;;0.90;;
55800;SDS011;41730;51.960;20.158;2022-08-11T16:21:25;2.30;;;1.00;;
55800;SDS011;41730;51.960;20.158;2022-08-11T16:24:04;2.10;;;0.90;;
55800;SDS011;41730;51.960;20.158;2022-08-11T16:29:41;3.20;;;1.00;;
55800;SDS011;41730;51.960;20.158;2022-08-11T16:32:16;2.70;;;1.20;;
55800;SDS011;41730;51.960;20.158;2022-08-11T16:34:51;3.00;;;1.20;;
55800;SDS011;41730;51.960;20.158;2022-08-11T16:37:42;2.20;;;1.00;;
55800;SDS011;41730;51.960;20.158;2022-08-11T16:40:32;3.40;;;1.10;;
55800;SDS011;41730;51.960;20.158;2022-08-11T16:43:06;3.30;;;1.50;;
55800;SDS011;41730;51.960;20.158;2022-08-11T16:45:59;4.80;;;2.00;;
55800;SDS011;41730;51.960;20.158;2022-08-11T16:48:50;4.90;;;2.80;;
55800;SDS011;41730;51.960;20.158;2022-08-11T16:51:23;5.60;;;3.30;;
55800;SDS011;41730;51.960;20.158;2022-08-11T16:53:55;6.20;;;3.50;;
55800;SDS011;41730;51.960;20.158;2022-08-11T16:56:35;7.10;;;3.90;;
55800;SDS011;41730;51.960;20.158;2022-08-11T16:59:19;8.40;;;4.20;;
55800;SDS011;41730;51.960;20.158;2022-08-11T17:01:56;8.40;;;4.40;;
55800;SDS011;41730;51.960;20.158;2022-08-11T17:04:34;7.30;;;4.80;;
55800;SDS011;41730;51.960;20.158;2022-08-11T17:07:33;8.20;;;5.50;;
55800;SDS011;41730;51.960;20.158;2022-08-11T17:10:29;10.70;;;7.50;;
55800;SDS011;41730;51.960;20.158;2022-08-11T17:13:32;9.00;;;6.10;;
55800;SDS011;41730;51.960;20.158;2022-08-11T17:16:10;7.60;;;5.40;;
55800;SDS011;41730;51.960;20.158;2022-08-11T17:18:47;6.60;;;4.70;;
55800;SDS011;41730;51.960;20.158;2022-08-11T17:21:26;6.00;;;4.50;;
55800;SDS011;41730;51.960;20.158;2022-08-11T17:24:02;6.70;;;4.50;;
55800;SDS011;41730;51.960;20.158;2022-08-11T17:26:38;8.70;;;4.40;;
55800;SDS011;41730;51.960;20.158;2022-08-11T17:29:24;5.70;;;4.00;;
55800;SDS011;41730;51.960;20.158;2022-08-11T17:32:01;5.80;;;4.20;;
55800;SDS011;41730;51.960;20.158;2022-08-11T17:34:54;6.40;;;3.90;;
55800;SDS011;41730;51.960;20.158;2022-08-11T17:37:45;5.50;;;3.40;;
55800;SDS011;41730;51.960;20.158;2022-08-11T17:40:19;4.00;;;3.00;;